Racecast

Allen Morris

Empire Athletics (FL) · 11 · Compare head to head

Athlete rating
Races 40
Seasons 2 2024 — 2025
Speed rating — all races

Track & Field

TF speed rating

2025 TF

Empire Athletics (FL) · Grade 11

Date Meet Event Result Place Rating Difficulty PR/SR Flags
2025-03-23 adidas Track Nationals 2025 400m 54.43 100th · 1st on team -0.044
2025-02-22 BWSP Queens and Kings Championships 55m 6.88 5th · 1st on team -0.023 SR
2025-02-22 BWSP Queens and Kings Championships 200m 24.03 3rd · 1st on team -0.023
2025-02-22 BWSP Queens and Kings Championships 55m 6.95 10th · 2nd on team -0.023
2025-02-22 BWSP Queens and Kings Championships 400m 54.21 7th · 1st on team -0.023
2024-12-22 Grant Holloway Invite '24 60m 7.36 12th · 4th on team -0.044 ★PR SR
2024-12-22 Grant Holloway Invite '24 200m 24.55 12th · 3rd on team -0.044
2024-12-22 Grant Holloway Invite '24 60m 7.5 14th · 5th on team -0.044
2024-12-15 VB Oceanfront Invitational 200m 23.82 3rd · 1st on team -0.044
2024-12-15 VB Oceanfront Invitational 400m 53.47 2nd · 1st on team -0.044 SR
2024-12-08 Coach Miami Presents the Virginia Beast Invitational 200m 23.82 9th · 1st on team -0.044 SR
2024-12-08 Coach Miami Presents the Virginia Beast Invitational 400m 54.06 9th · 1st on team -0.044 SR
2024-12-08 Coach Miami Presents the Virginia Beast Invitational 60m 7.47 16th · 2nd on team -0.044 PR SR
2024-12-08 Coach Miami Presents the Virginia Beast Invitational 60m 7.42 14th · 1st on team -0.044 PR SR

2024 TF

Empire Athletics (FL) · Grade 10

Date Meet Event Result Place Rating Difficulty PR/SR Flags
2024-06-08 AAU Virginia South District Qualifier lj ND -0.039
2024-06-08 AAU Virginia South District Qualifier 200m 23.28 8th · 1st on team -0.039
2024-06-08 AAU Virginia South District Qualifier 400m 52.31 10th · 1st on team -0.039
2024-05-26 HR Hurricanes CAT 5 Invite (CANCELED) (CANCELED) 200m 23.43 3rd · 2nd on team -0.028
2024-05-05 Queen Harrison Invite 200m 23 2nd · 1st on team -0.043 ★PR SR
2024-05-05 Queen Harrison Invite 400m 51.84 1st · 1st on team -0.043 ★PR SR
2024-05-05 Queen Harrison Invite 100m 11.78 2nd · 1st on team -0.043 ★PR SR
2024-04-20 New Captains Classic 100m 11.99 31st · 2nd on team -0.039 PR SR
2024-04-20 New Captains Classic 200m 23.3 19th · 1st on team -0.039 PR SR
2024-04-20 New Captains Classic 400m 54.82 19th · 2nd on team -0.039
2024-03-17 adidas Track Nationals 55m 7.03 89th · 1st on team -0.044
2024-03-17 adidas Track Nationals 200m 24.54 33rd · 1st on team -0.044
2024-03-17 adidas Track Nationals 60m 7.55 90th · 1st on team -0.044 PR SR
2024-03-03 AAU Indoor National Champonships 400m 54.22 41st · 2nd on team -0.044 PR SR
2024-03-03 AAU Indoor National Champonships 200m 23.69 56th · 2nd on team -0.044 PR SR
2024-02-18 HRH Winter Storm Classic 200m 24.32 5th · 3rd on team -0.034
2024-02-18 HRH Winter Storm Classic 55m 6.96 7th · 6th on team -0.034
2024-02-18 HRH Winter Storm Classic 55m 6.98 8th · 7th on team -0.034
2024-02-03 BWSP Queens and Kings 200m 24.07 5th · 2nd on team -0.023
2024-02-03 BWSP Queens and Kings 55m 6.83 6th · 3rd on team -0.023 ★PR SR
2024-02-03 BWSP Queens and Kings 400m 54.31 7th · 1st on team -0.023 PR SR
2024-02-03 BWSP Queens and Kings 55m 6.91 7th · 4th on team -0.023
2024-01-14 VA Showcase Club 400m 55.31 9th · 1st on team -0.044 PR SR
2024-01-14 VA Showcase Club 200m 24.56 46th · 2nd on team -0.044
2023-12-17 2023 Grant Holloway AAU Invitational 200m 24.02 12th · 1st on team -0.044 PR SR
2023-12-17 2023 Grant Holloway AAU Invitational 60m 7.57 24th · 1st on team -0.044 PR SR